createdAt,value
2018-09-12T00:01:41.758Z,99787.05
2018-09-12T00:04:10.515Z,99790.74
2018-09-12T00:06:39.266Z,99787.23
2018-09-12T00:09:10.192Z,99787.87
2018-09-12T00:11:38.969Z,99794.95
2018-09-12T00:14:07.731Z,99797.30
2018-09-12T00:16:37.117Z,99795.13
2018-09-12T00:19:06.197Z,99790.24
2018-09-12T00:21:34.920Z,99803.34
2018-09-12T00:24:03.685Z,99800.66
2018-09-12T00:26:32.444Z,99810.08
2018-09-12T00:29:01.366Z,99818.66
2018-09-12T00:31:30.125Z,99807.06
2018-09-12T00:33:58.939Z,99809.76
2018-09-12T00:36:27.658Z,99805.36
2018-09-12T00:38:56.437Z,99800.97
2018-09-12T00:41:25.204Z,99803.66
2018-09-12T00:43:53.986Z,99813.44
2018-09-12T00:46:22.714Z,99810.39
2018-09-12T00:48:51.496Z,99811.74
2018-09-12T00:51:20.258Z,99822.19
2018-09-12T00:53:49.000Z,99827.90
2018-09-12T00:56:17.757Z,99817.30
2018-09-12T00:58:46.556Z,99825.37
2018-09-12T01:01:15.346Z,99814.25
2018-09-12T01:03:44.249Z,99816.13
2018-09-12T01:06:12.974Z,99816.45
2018-09-12T01:08:41.769Z,99816.13
2018-09-12T01:11:10.542Z,99821.16
2018-09-12T01:13:39.308Z,99818.61
2018-09-12T01:16:08.091Z,99820.80
2018-09-12T01:18:36.806Z,99829.38
2018-09-12T01:21:05.728Z,99832.24
2018-09-12T01:23:34.477Z,99837.62
2018-09-12T01:26:03.256Z,99844.36
2018-09-12T01:28:31.973Z,99844.00
2018-09-12T01:31:00.749Z,99860.69
2018-09-12T01:33:29.540Z,99851.27
2018-09-12T01:35:58.261Z,99845.02
2018-09-12T01:38:27.062Z,99853.24
2018-09-12T01:40:55.986Z,99856.78
2018-09-12T01:43:24.758Z,99852.42
2018-09-12T01:45:53.522Z,99857.45
2018-09-12T01:48:22.265Z,99862.84
2018-09-12T01:50:51.017Z,99856.28
2018-09-12T01:53:19.805Z,99855.25
2018-09-12T01:55:48.519Z,99863.50
2018-09-12T01:58:17.373Z,99870.23
2018-09-12T02:00:46.189Z,99863.50
2018-09-12T02:03:14.994Z,99865.84
2018-09-12T02:05:43.840Z,99861.48
2018-09-12T02:08:12.544Z,99866.33
2018-09-12T02:10:41.320Z,99870.90
2018-09-12T02:13:10.089Z,99863.31
2018-09-12T02:15:38.849Z,99865.66
2018-09-12T02:18:07.635Z,99855.38
2018-09-12T02:20:36.395Z,99860.94
2018-09-12T02:23:05.186Z,99871.70
2018-09-12T02:25:33.948Z,99869.86
2018-09-12T02:28:02.738Z,99868.16
2018-09-12T02:30:31.478Z,99864.13
2018-09-12T02:33:00.265Z,99883.81
2018-09-12T02:35:29.122Z,99879.92
2018-09-12T02:37:57.845Z,99874.04
2018-09-12T02:40:26.607Z,99878.38
2018-09-12T02:42:55.354Z,99888.35
2018-09-12T02:45:24.115Z,99885.30
2018-09-12T02:47:52.862Z,99883.46
2018-09-12T02:50:21.598Z,99887.50
2018-09-12T02:52:50.397Z,99882.61
2018-09-12T02:55:19.114Z,99889.34
2018-09-12T02:57:47.884Z,99887.50
2018-09-12T03:00:16.630Z,99892.55
2018-09-12T03:02:45.413Z,99890.69
2018-09-12T03:05:14.170Z,99897.41
2018-09-12T03:07:42.931Z,99904.99
2018-09-12T03:10:11.677Z,99902.80
2018-09-12T03:12:40.452Z,99911.40
2018-09-12T03:15:09.279Z,99908.71
2018-09-12T03:17:38.010Z,99911.40
2018-09-12T03:20:06.885Z,99909.53
2018-09-12T03:22:35.620Z,99913.56
2018-09-12T03:25:04.489Z,99898.76
2018-09-12T03:27:33.237Z,99897.86
2018-09-12T03:30:01.971Z,99909.20
2018-09-12T03:32:30.703Z,99915.44
2018-09-12T03:34:59.547Z,99902.47
2018-09-12T03:37:28.312Z,99915.93
2018-09-12T03:39:57.079Z,99901.13
2018-09-12T03:42:25.777Z,99912.88
2018-09-12T03:44:54.595Z,99922.30
2018-09-12T03:47:23.386Z,99910.19
2018-09-12T03:49:52.173Z,99900.77
2018-09-12T03:52:21.004Z,99907.99
2018-09-12T03:54:49.868Z,99905.83
2018-09-12T03:57:18.625Z,99907.67
2018-09-12T03:59:47.461Z,99916.20
2018-09-12T04:02:16.205Z,99911.31
2018-09-12T04:04:44.920Z,99914.01
2018-09-12T04:07:13.687Z,99907.77
2018-09-12T04:09:42.538Z,99908.63
2018-09-12T04:12:11.299Z,99907.77
2018-09-12T04:14:40.077Z,99907.45
2018-09-12T04:17:08.880Z,99915.03
2018-09-12T04:19:37.603Z,99918.70
2018-09-12T04:22:06.390Z,99920.91
2018-09-12T04:24:35.144Z,99924.09
2018-09-12T04:27:04.199Z,99930.46
2018-09-12T04:29:32.939Z,99928.12
2018-09-12T04:32:01.898Z,99931.31
2018-09-12T04:34:30.722Z,99929.12
2018-09-12T04:36:59.466Z,99929.64
2018-09-12T04:39:28.248Z,99918.88
2018-09-12T04:41:57.043Z,99916.68
2018-09-12T04:44:25.802Z,99907.27
2018-09-12T04:46:54.685Z,99919.38
2018-09-12T04:49:23.532Z,99878.81
2018-09-12T04:51:52.347Z,99922.39
2018-09-12T04:54:21.097Z,99920.72
2018-09-12T04:56:49.828Z,99926.59
2018-09-12T04:59:18.605Z,99932.83
2018-09-12T05:01:47.397Z,99931.98
2018-09-12T05:04:16.208Z,99926.59
2018-09-12T05:06:44.946Z,99931.48
2018-09-12T05:09:13.864Z,99916.19
2018-09-12T05:11:42.678Z,99929.12
2018-09-12T05:14:11.503Z,99936.38
2018-09-12T05:16:41.230Z,99934.01
2018-09-12T05:19:09.979Z,99938.54
2018-09-12T05:21:38.757Z,99945.63
2018-09-12T05:24:07.496Z,99941.59
2018-09-12T05:26:36.331Z,99940.73
2018-09-12T05:29:05.437Z,99938.90
2018-09-12T05:31:34.283Z,99949.00
2018-09-12T05:34:03.077Z,99952.19
2018-09-12T05:36:31.881Z,99958.59
2018-09-12T05:39:00.700Z,99957.08
2018-09-12T05:41:29.538Z,99959.27
2018-09-12T05:43:58.273Z,99972.73
2018-09-12T05:46:27.067Z,99975.42
2018-09-12T05:48:55.908Z,99976.31
2018-09-12T05:51:24.718Z,99965.87
2018-09-12T05:53:53.601Z,99963.70
2018-09-12T05:56:22.345Z,99958.50
2018-09-12T05:58:51.317Z,99959.85
2018-09-12T06:01:20.121Z,99970.09
2018-09-12T06:03:48.955Z,99959.19
2018-09-12T06:06:17.823Z,99964.08
2018-09-12T06:08:46.607Z,99962.73
2018-09-12T06:11:15.419Z,99968.44
2018-09-12T06:13:44.272Z,99958.53
2018-09-12T06:16:13.058Z,99967.45
2018-09-12T06:18:41.831Z,99960.72
2018-09-12T06:21:10.669Z,99956.69
2018-09-12T06:23:39.422Z,99956.19
2018-09-12T06:26:08.218Z,99962.43
2018-09-12T06:28:36.979Z,99961.41
2018-09-12T06:31:06.014Z,99979.76
2018-09-12T06:33:34.750Z,99972.17
2018-09-12T06:36:03.706Z,99961.41
2018-09-12T06:38:32.642Z,99951.49
2018-09-12T06:41:01.451Z,99962.62
2018-09-12T06:43:30.207Z,99966.48
2018-09-12T06:45:58.968Z,99965.14
2018-09-12T06:48:27.955Z,99961.46
2018-09-12T06:50:56.810Z,99957.91
2018-09-12T06:53:25.908Z,99956.08
2018-09-12T06:55:54.749Z,99957.74
2018-09-12T06:58:23.531Z,99963.13
2018-09-12T07:00:52.588Z,99957.74
2018-09-12T07:03:21.573Z,99964.48
2018-09-12T07:05:50.510Z,99942.38
2018-09-12T07:08:19.434Z,99955.91
2018-09-12T07:10:48.168Z,99955.91
2018-09-12T07:13:17.324Z,99960.30
2018-09-12T07:15:46.429Z,99954.39
2018-09-12T07:18:15.331Z,99964.66
2018-09-12T07:20:44.172Z,99959.96
2018-09-12T07:23:12.911Z,99970.23
2018-09-12T07:25:42.101Z,99975.48
2018-09-12T07:28:11.105Z,99973.97
2018-09-12T07:30:40.207Z,99976.53
2018-09-12T07:33:09.184Z,99984.93
2018-09-12T07:35:38.295Z,99995.56
2018-09-12T07:38:07.132Z,99999.44
2018-09-12T07:40:35.926Z,100001.95
2018-09-12T07:43:04.806Z,100003.30
2018-09-12T07:45:33.530Z,99997.78
2018-09-12T07:48:02.305Z,100003.66
2018-09-12T07:50:31.153Z,99998.10
2018-09-12T07:52:59.921Z,99994.92
2018-09-12T07:55:28.668Z,99991.23
2018-09-12T07:57:57.395Z,99982.66
2018-09-12T08:00:26.260Z,99999.64
2018-09-12T08:02:55.013Z,99993.27
2018-09-12T08:05:23.745Z,100000.84
2018-09-12T08:07:52.513Z,100003.37
2018-09-12T08:10:21.343Z,99993.81
2018-09-12T08:12:50.168Z,99998.34
2018-09-12T08:15:19.136Z,100008.62
2018-09-12T08:17:48.310Z,100003.23
2018-09-12T08:20:17.365Z,99997.67
2018-09-12T08:22:46.321Z,100003.42
2018-09-12T08:25:15.107Z,100002.57
2018-09-12T08:27:43.850Z,99996.69
2018-09-12T08:30:12.948Z,99998.88
2018-09-12T08:32:41.730Z,100007.46
2018-09-12T08:35:12.198Z,100000.23
2018-09-12T08:37:41.201Z,99997.54
2018-09-12T08:40:10.396Z,99985.42
2018-09-12T08:42:39.211Z,99983.22
2018-09-12T08:45:08.118Z,99988.61
2018-09-12T08:47:37.109Z,99995.34
2018-09-12T08:50:06.750Z,99995.84
2018-09-12T08:52:35.529Z,99996.83
2018-09-12T08:55:05.021Z,99984.70
2018-09-12T08:57:33.756Z,99974.95
2018-09-12T09:00:02.765Z,99977.65
2018-09-12T09:02:31.781Z,99976.80
2018-09-12T09:05:00.856Z,99985.37
2018-09-12T09:07:29.698Z,99972.21
2018-09-12T09:09:58.537Z,99968.72
2018-09-12T09:12:27.438Z,99974.59
2018-09-12T09:14:56.386Z,99968.89
2018-09-12T09:17:25.227Z,99970.23
2018-09-12T09:19:54.107Z,99968.53
2018-09-12T09:22:23.149Z,99955.56
2018-09-12T09:24:51.902Z,99961.44
2018-09-12T09:27:21.025Z,99967.32
2018-09-12T09:29:50.178Z,99969.69
2018-09-12T09:32:19.247Z,99963.45
2018-09-12T09:34:48.471Z,99967.13
2018-09-12T09:37:17.763Z,99946.61
2018-09-12T09:39:46.619Z,99956.04
2018-09-12T09:42:15.670Z,99956.04
2018-09-12T09:44:44.441Z,99955.36
2018-09-12T09:47:13.466Z,99953.48
2018-09-12T09:49:42.581Z,99959.72
2018-09-12T09:52:11.538Z,99951.64
2018-09-12T09:54:40.560Z,99950.30
2018-09-12T09:57:09.553Z,99956.17
2018-09-12T09:59:39.373Z,99954.83
2018-09-12T10:02:13.534Z,99954.83
2018-09-12T10:04:47.580Z,99955.36
2018-09-12T10:07:22.008Z,99943.23
2018-09-12T10:09:55.285Z,99948.63
2018-09-12T10:12:24.279Z,99948.77
2018-09-12T10:14:53.340Z,99942.88
2018-09-12T10:17:22.400Z,99967.97
2018-09-12T10:19:51.512Z,99956.84
2018-09-12T10:22:20.450Z,99940.00
2018-09-12T10:24:49.494Z,99944.72
2018-09-12T10:27:18.553Z,99951.95
2018-09-12T10:29:47.776Z,99948.44
2018-09-12T10:32:16.887Z,99940.00
2018-09-12T10:34:45.935Z,99942.20
2018-09-12T10:37:16.547Z,99929.23
2018-09-12T10:39:45.590Z,99937.31
2018-09-12T10:42:14.774Z,99941.52
2018-09-12T10:44:44.023Z,99949.92
2018-09-12T10:47:13.255Z,99948.75
2018-09-12T10:49:42.026Z,99943.86
2018-09-12T10:52:11.307Z,99953.28
2018-09-12T10:54:40.058Z,99943.00
2018-09-12T10:57:08.934Z,99945.38
2018-09-12T10:59:37.726Z,99948.56
2018-09-12T11:02:06.549Z,99948.56
2018-09-12T11:04:35.300Z,99953.59
2018-09-12T11:07:04.192Z,99951.39
2018-09-12T11:09:32.935Z,99945.16
2018-09-12T11:12:02.077Z,99940.79
2018-09-12T11:14:30.823Z,99941.78
2018-09-12T11:16:59.575Z,99948.02
2018-09-12T11:19:28.379Z,99941.78
2018-09-12T11:21:57.159Z,99947.16
2018-09-12T11:24:25.909Z,99947.34
2018-09-12T11:26:54.622Z,99952.36
2018-09-12T11:29:23.434Z,99958.59
2018-09-12T11:31:52.453Z,99953.70
2018-09-12T11:34:21.562Z,99964.64
2018-09-12T11:36:50.486Z,99971.88
2018-09-12T11:39:19.529Z,99966.48
2018-09-12T11:41:48.473Z,99974.56
2018-09-12T11:44:17.245Z,99983.63
2018-09-12T11:46:45.961Z,99964.95
2018-09-12T11:49:14.812Z,99965.45
2018-09-12T11:51:43.657Z,99974.88
2018-09-12T11:54:12.376Z,99972.67
2018-09-12T11:56:41.361Z,99977.23
2018-09-12T11:59:10.205Z,99969.16
2018-09-12T12:01:39.000Z,99950.45
2018-09-12T12:04:08.276Z,99967.95
2018-09-12T12:06:37.340Z,99960.89
2018-09-12T12:09:08.816Z,99962.56
2018-09-12T12:11:38.012Z,99954.16
2018-09-12T12:14:07.246Z,99964.58
2018-09-12T12:16:36.447Z,99968.12
2018-09-12T12:19:05.829Z,99963.23
2018-09-12T12:21:35.002Z,99964.08
2018-09-12T12:24:04.811Z,99952.11
2018-09-12T12:26:33.825Z,99954.30
2018-09-12T12:29:03.445Z,99956.98
2018-09-12T12:31:32.562Z,99947.22
2018-09-12T12:34:01.598Z,99947.22
2018-09-12T12:36:30.712Z,99951.11
2018-09-12T12:38:59.484Z,99944.02
2018-09-12T12:41:28.446Z,99941.69
2018-09-12T12:43:57.223Z,99944.02
2018-09-12T12:46:26.229Z,99947.56
2018-09-12T12:48:55.284Z,99954.30
2018-09-12T12:51:24.337Z,99943.70
2018-09-12T12:53:53.303Z,99944.52
2018-09-12T12:56:22.322Z,99947.73
2018-09-12T12:58:51.647Z,99951.25
2018-09-12T13:01:21.045Z,99951.25
2018-09-12T13:03:50.091Z,99941.83
2018-09-12T13:06:18.873Z,99953.13
2018-09-12T13:08:48.077Z,99950.07
2018-09-12T13:11:17.137Z,99954.96
2018-09-12T13:13:46.090Z,99961.69
2018-09-12T13:16:15.222Z,99959.98
2018-09-12T13:18:44.137Z,99956.97
2018-09-12T13:21:13.248Z,99963.17
2018-09-12T13:23:42.065Z,99962.45
2018-09-12T13:26:10.911Z,99967.34
2018-09-12T13:28:39.650Z,99969.19
2018-09-12T13:31:08.827Z,99977.75
2018-09-12T13:33:37.821Z,99973.72
2018-09-12T13:36:06.877Z,99971.55
2018-09-12T13:38:35.851Z,99962.27
2018-09-12T13:41:04.948Z,99974.38
2018-09-12T13:43:34.043Z,99977.07
2018-09-12T13:46:02.983Z,99973.03
2018-09-12T13:48:31.795Z,99974.05
2018-09-12T13:51:00.572Z,99971.00
2018-09-12T13:53:29.556Z,99972.35
2018-09-12T13:55:58.370Z,99964.27
2018-09-12T13:58:27.145Z,99963.42
2018-09-12T14:00:55.889Z,99974.69
2018-09-12T14:03:24.944Z,99978.23
2018-09-12T14:05:54.031Z,99978.39
2018-09-12T14:08:22.861Z,99985.62
2018-09-12T14:10:51.635Z,99979.73
2018-09-12T14:13:20.707Z,99996.38
2018-09-12T14:15:49.846Z,99974.66
2018-09-12T14:18:18.792Z,99982.23
2018-09-12T14:20:47.637Z,99993.50
2018-09-12T14:23:16.690Z,100002.42
2018-09-12T14:25:45.673Z,99988.12
2018-09-12T14:28:14.461Z,100000.55
2018-09-12T14:30:43.313Z,99997.54
2018-09-12T14:33:13.499Z,100002.06
2018-09-12T14:35:42.418Z,99993.50
2018-09-12T14:38:11.753Z,99995.83
2018-09-12T14:40:40.660Z,100001.22
2018-09-12T14:43:09.414Z,99999.87
2018-09-12T14:48:06.488Z,100011.98
2018-09-12T14:50:35.372Z,100009.29
2018-09-12T14:53:04.873Z,100004.76
2018-09-12T15:00:29.802Z,100011.48
2018-09-12T15:02:59.740Z,100014.17
2018-09-12T15:07:57.630Z,100019.56
2018-09-12T15:10:27.010Z,100011.48
2018-09-12T15:12:56.142Z,100006.11
2018-09-12T15:15:25.244Z,100011.98
2018-09-12T15:20:22.211Z,100003.91
2018-09-12T15:22:51.020Z,100010.63
2018-09-12T15:30:15.627Z,100020.22
2018-09-12T15:32:44.569Z,100014.84
2018-09-12T15:35:13.715Z,100017.17
2018-09-12T15:37:42.620Z,100024.75
2018-09-12T15:40:11.769Z,100029.28
2018-09-12T15:42:41.178Z,100032.46
2018-09-12T15:45:10.313Z,100037.52
2018-09-12T15:47:39.625Z,100046.94
2018-09-12T15:50:08.481Z,100052.81
2018-09-12T15:52:37.240Z,100051.47
2018-09-12T15:55:06.042Z,100048.94
2018-09-12T15:57:34.794Z,100045.39
2018-09-12T16:00:04.176Z,100045.39
2018-09-12T16:02:32.957Z,100058.00
2018-09-12T16:05:01.780Z,100052.62
2018-09-12T16:07:30.606Z,100057.64
2018-09-12T16:09:59.385Z,100059.51
2018-09-12T16:12:28.214Z,100065.71
2018-09-12T16:14:56.958Z,100068.56
2018-09-12T16:17:25.713Z,100080.31
2018-09-12T16:19:54.900Z,100085.70
2018-09-12T16:22:23.847Z,100075.95
2018-09-12T16:24:53.130Z,100078.16
2018-09-12T16:27:22.650Z,100071.06
2018-09-12T16:29:51.984Z,100069.36
2018-09-12T16:32:21.057Z,100075.76
2018-09-12T16:34:50.262Z,100088.36
2018-09-12T16:37:19.401Z,100092.39
2018-09-12T16:39:48.504Z,100078.58
2018-09-12T16:42:17.642Z,100095.21
2018-09-12T16:44:46.860Z,100089.50
2018-09-12T16:47:15.943Z,100086.81
2018-09-12T16:49:44.882Z,100098.92
2018-09-12T16:52:13.689Z,100089.14
2018-09-12T16:54:42.546Z,100083.44
2018-09-12T16:57:11.389Z,100093.67
2018-09-12T16:59:40.529Z,100096.89
2018-09-12T17:02:09.311Z,100098.56
2018-09-12T17:04:38.483Z,100100.56
2018-09-12T17:07:07.312Z,100097.38
2018-09-12T17:09:36.115Z,100104.11
2018-09-12T17:12:04.909Z,100090.78
2018-09-12T17:14:33.712Z,100113.32
2018-09-12T17:17:03.476Z,100102.89
2018-09-12T17:19:32.247Z,100116.70
2018-09-12T17:22:01.030Z,100117.36
2018-09-12T17:24:29.845Z,100128.45
2018-09-12T17:26:58.642Z,100126.13
2018-09-12T17:29:27.429Z,100124.41
2018-09-12T17:31:56.445Z,100122.09
2018-09-12T17:34:25.234Z,100128.61
2018-09-12T17:36:54.377Z,100127.63
2018-09-12T17:39:23.185Z,100128.81
2018-09-12T17:41:51.961Z,100137.05
2018-09-12T17:44:21.107Z,100145.45
2018-09-12T17:46:49.939Z,100147.28
2018-09-12T17:49:18.761Z,100159.39
2018-09-12T17:51:47.637Z,100163.59
2018-09-12T17:54:16.459Z,100175.53
2018-09-12T17:56:45.326Z,100183.11
2018-09-12T17:59:14.564Z,100177.89
2018-09-12T18:01:43.661Z,100184.62
2018-09-12T18:04:12.702Z,100196.72
2018-09-12T18:06:41.733Z,100198.92
2018-09-12T18:09:11.079Z,100197.70
2018-09-12T18:11:39.879Z,100195.88
2018-09-12T18:14:08.835Z,100191.47
2018-09-12T18:16:37.627Z,100210.17
2018-09-12T18:19:06.649Z,100209.81
2018-09-12T18:21:35.480Z,100214.87
2018-09-12T18:24:04.744Z,100221.59
2018-09-12T18:26:33.556Z,100218.91
2018-09-12T18:29:02.619Z,100218.05
2018-09-12T18:31:31.472Z,100223.43
2018-09-12T18:34:00.234Z,100226.97
2018-09-12T18:36:29.368Z,100228.31
2018-09-12T18:38:58.386Z,100252.17
2018-09-12T18:41:27.636Z,100265.13
2018-09-12T18:43:56.706Z,100264.27
2018-09-12T18:46:25.806Z,100262.56
2018-09-12T18:48:54.571Z,100267.82
2018-09-12T18:51:23.556Z,100251.80
2018-09-12T18:53:52.701Z,100262.93
2018-09-12T18:56:21.530Z,100259.88
2018-09-12T18:58:50.384Z,100264.77
2018-09-12T19:01:19.528Z,100261.22
2018-09-12T19:03:48.365Z,100272.84
2018-09-12T19:06:17.403Z,100267.13
2018-09-12T19:08:46.297Z,100254.50
2018-09-12T19:11:15.108Z,100254.50
2018-09-12T19:13:44.257Z,100258.04
2018-09-12T19:16:13.374Z,100261.58
2018-09-12T19:18:42.554Z,100259.38
2018-09-12T19:21:11.699Z,100264.77
2018-09-12T19:23:41.019Z,100272.34
2018-09-12T19:26:10.228Z,100282.25
2018-09-12T19:28:39.447Z,100294.72
2018-09-12T19:31:08.675Z,100293.88
2018-09-12T19:33:37.803Z,100304.47
2018-09-12T19:36:06.927Z,100310.38
2018-09-12T19:38:36.069Z,100310.38
2018-09-12T19:41:05.296Z,100312.05
2018-09-12T19:43:34.722Z,100303.98
2018-09-12T19:46:04.288Z,100305.70
2018-09-12T19:48:33.393Z,100315.97
2018-09-12T19:51:03.156Z,100317.80
2018-09-12T19:53:32.285Z,100323.88
2018-09-12T19:56:01.398Z,100319.84
2018-09-12T19:58:30.808Z,100319.84
2018-09-12T20:01:00.049Z,100326.08
2018-09-12T20:03:28.901Z,100335.98
2018-09-12T20:05:58.172Z,100338.52
2018-09-12T20:08:27.065Z,100340.72
2018-09-12T20:10:56.464Z,100346.10
2018-09-12T20:13:25.560Z,100339.73
2018-09-12T20:15:54.925Z,100342.27
2018-09-12T20:18:24.021Z,100349.37
2018-09-12T20:20:53.056Z,100353.73
2018-09-12T20:24:52.001Z,100358.50
2018-09-12T20:27:21.075Z,100353.25
2018-09-12T20:29:49.966Z,100343.49
2018-09-12T20:32:18.968Z,100345.53
2018-09-12T20:34:47.921Z,100350.42
2018-09-12T20:37:16.874Z,100364.58
2018-09-12T20:39:45.751Z,100362.59
2018-09-12T20:42:14.769Z,100357.70
2018-09-12T20:44:43.694Z,100365.98
2018-09-12T20:47:13.866Z,100365.00
2018-09-12T20:49:43.062Z,100380.50
2018-09-12T20:52:11.918Z,100380.00
2018-09-12T20:54:40.700Z,100378.87
2018-09-12T20:57:09.566Z,100386.95
2018-09-12T20:59:38.483Z,100386.78
2018-09-12T21:02:07.733Z,100388.66
2018-09-12T21:04:36.591Z,100390.33
2018-09-12T21:07:05.520Z,100399.27
2018-09-12T21:09:34.310Z,100389.84
2018-09-12T21:12:03.145Z,100400.97
2018-09-12T21:14:31.925Z,100394.58
2018-09-12T21:17:00.803Z,100399.63
2018-09-12T21:19:29.866Z,100401.83
2018-09-12T21:21:58.654Z,100416.64
2018-09-12T21:24:27.573Z,100420.67
2018-09-12T21:26:56.356Z,100423.70
2018-09-12T21:29:25.110Z,100411.09
2018-09-12T21:31:53.955Z,100408.41
2018-09-12T21:34:22.755Z,100418.68
2018-09-12T21:36:52.348Z,100411.95
2018-09-12T21:39:21.186Z,100417.17
2018-09-12T21:41:49.962Z,100420.36
2018-09-12T21:44:18.712Z,100416.48
2018-09-12T21:46:47.474Z,100414.16
2018-09-12T21:49:16.303Z,100419.53
2018-09-12T21:51:45.194Z,100423.05
2018-09-12T21:54:14.034Z,100434.83
2018-09-12T21:56:43.006Z,100434.34
2018-09-12T21:59:11.782Z,100433.81
2018-09-12T22:01:41.616Z,100437.86
2018-09-12T22:04:10.452Z,100435.16
2018-09-12T22:06:39.281Z,100439.72
2018-09-12T22:09:11.633Z,100439.72
2018-09-12T22:11:40.451Z,100446.45
2018-09-12T22:14:09.318Z,100440.22
2018-09-12T22:16:38.120Z,100447.80
2018-09-12T22:19:07.073Z,100452.66
2018-09-12T22:21:35.964Z,100447.80
2018-09-12T22:24:04.997Z,100451.31
2018-09-12T22:26:33.808Z,100452.66
2018-09-12T22:29:02.624Z,100455.35
2018-09-12T22:31:31.425Z,100455.88
2018-09-12T22:34:00.278Z,100460.73
2018-09-12T22:36:29.147Z,100469.67
2018-09-12T22:38:58.103Z,100474.56
2018-09-12T22:41:26.863Z,100472.36
2018-09-12T22:43:55.791Z,100469.17
2018-09-12T22:46:24.566Z,100469.67
2018-09-12T22:48:53.295Z,100476.89
2018-09-12T22:51:22.102Z,100480.44
2018-09-12T22:53:50.955Z,100487.53
2018-09-12T22:56:19.744Z,100483.12
2018-09-12T22:58:48.631Z,100477.91
2018-09-12T23:01:17.420Z,100483.98
2018-09-12T23:03:46.200Z,100481.30
2018-09-12T23:06:15.005Z,100477.74
2018-09-12T23:08:43.942Z,100478.75
2018-09-12T23:11:12.765Z,100492.55
2018-09-12T23:13:41.761Z,100486.31
2018-09-12T23:16:10.565Z,100478.23
2018-09-12T23:18:39.330Z,100486.84
2018-09-12T23:21:08.117Z,100486.84
2018-09-12T23:23:36.881Z,100493.56
2018-09-12T23:26:05.784Z,100493.56
2018-09-12T23:28:34.636Z,100495.89
2018-09-12T23:31:03.406Z,100482.91
2018-09-12T23:33:32.167Z,100489.31
2018-09-12T23:36:01.011Z,100491.48
2018-09-12T23:38:29.831Z,100492.83
2018-09-12T23:40:58.632Z,100500.57
2018-09-12T23:43:27.395Z,100505.47
2018-09-12T23:45:56.148Z,100509.99
2018-09-12T23:48:24.992Z,100510.48
2018-09-12T23:50:53.777Z,100515.37
2018-09-12T23:53:22.536Z,100515.50
2018-09-12T23:55:51.348Z,100506.93
2018-09-12T23:58:20.226Z,100507.91
